createdAt,value
2022-11-09T00:00:15.265Z,97493.25
2022-11-09T00:02:44.099Z,97469.72
2022-11-09T00:05:11.053Z,97486.13
2022-11-09T00:07:37.604Z,97493.88
2022-11-09T00:10:04.556Z,97481.97
2022-11-09T00:12:31.101Z,97454.50
2022-11-09T00:14:57.640Z,97484.47
2022-11-09T00:17:24.211Z,97454.91
2022-11-09T00:19:54.672Z,97452.47
2022-11-09T00:22:24.289Z,97475.25
2022-11-09T00:24:52.638Z,97459.25
2022-11-09T00:27:19.162Z,97482.00
2022-11-09T00:29:45.678Z,97467.22
2022-11-09T00:32:12.299Z,97477.47
2022-11-09T00:34:38.802Z,97495.31
2022-11-09T00:37:05.362Z,97488.56
2022-11-09T00:39:31.848Z,97478.91
2022-11-09T00:41:58.346Z,97488.97
2022-11-09T00:44:24.878Z,97480.34
2022-11-09T00:46:53.824Z,97489.81
2022-11-09T00:49:20.335Z,97483.84
2022-11-09T00:51:46.842Z,97499.47
2022-11-09T00:54:13.404Z,97495.72
2022-11-09T00:56:39.965Z,97486.91
2022-11-09T00:59:06.472Z,97499.81
2022-11-09T01:01:34.368Z,97495.75
2022-11-09T01:04:00.928Z,97490.22
2022-11-09T01:06:27.585Z,97504.75
2022-11-09T01:08:55.378Z,97513.75
2022-11-09T01:11:27.621Z,97503.13
2022-11-09T01:14:00.466Z,97514.81
2022-11-09T01:16:27.645Z,97516.88
2022-11-09T01:18:58.703Z,97484.84
2022-11-09T01:21:29.634Z,97501.47
2022-11-09T01:23:59.010Z,97492.91
2022-11-09T01:26:26.597Z,97503.50
2022-11-09T01:28:55.223Z,97531.22
2022-11-09T01:31:22.454Z,97534.09
2022-11-09T01:33:49.014Z,97530.16
2022-11-09T01:36:20.284Z,97541.66
2022-11-09T01:38:47.136Z,97517.84
2022-11-09T01:41:22.978Z,97537.13
2022-11-09T01:44:05.541Z,97541.66
2022-11-09T01:47:00.754Z,97527.97
2022-11-09T01:49:58.852Z,97535.06
2022-11-09T01:52:34.033Z,97535.31
2022-11-09T01:55:08.316Z,97544.72
2022-11-09T01:57:41.899Z,97543.69
2022-11-09T02:00:12.632Z,97527.06
2022-11-09T02:02:43.853Z,97520.50
2022-11-09T02:05:14.150Z,97537.97
2022-11-09T02:07:42.242Z,97537.13
2022-11-09T02:10:31.909Z,97550.03
2022-11-09T02:13:00.467Z,97515.81
2022-11-09T02:15:30.916Z,97539.38
2022-11-09T02:18:00.458Z,97535.66
2022-11-09T02:20:30.947Z,97531.56
2022-11-09T02:22:58.027Z,97546.72
2022-11-09T02:25:24.557Z,97530.97
2022-11-09T02:27:51.826Z,97553.53
2022-11-09T02:30:20.742Z,97548.41
2022-11-09T02:32:47.362Z,97538.16
2022-11-09T02:35:13.920Z,97553.53
2022-11-09T02:37:47.773Z,97550.66
2022-11-09T02:40:19.540Z,97547.38
2022-11-09T02:42:46.187Z,97561.13
2022-11-09T02:45:12.809Z,97546.97
2022-11-09T02:47:39.350Z,97559.88
2022-11-09T02:50:06.514Z,97545.13
2022-11-09T02:52:33.074Z,97572.41
2022-11-09T02:55:03.384Z,97573.47
2022-11-09T02:57:33.589Z,97555.78
2022-11-09T03:00:04.372Z,97567.53
2022-11-09T03:02:34.499Z,97556.63
2022-11-09T03:05:01.774Z,97543.31
2022-11-09T03:07:28.334Z,97557.47
2022-11-09T03:09:54.859Z,97548.00
2022-11-09T03:12:33.549Z,97554.16
2022-11-09T03:15:05.665Z,97550.25
2022-11-09T03:17:36.200Z,97551.28
2022-11-09T03:20:03.069Z,97566.25
2022-11-09T03:22:32.185Z,97559.06
2022-11-09T03:24:58.717Z,97562.38
2022-11-09T03:27:25.262Z,97554.56
2022-11-09T03:29:51.802Z,97573.88
2022-11-09T03:32:18.539Z,97568.97
2022-11-09T03:34:45.068Z,97561.13
2022-11-09T03:37:11.682Z,97581.88
2022-11-09T03:39:38.302Z,97584.78
2022-11-09T03:42:04.921Z,97580.25
2022-11-09T03:44:33.614Z,97572.41
2022-11-09T03:47:00.172Z,97580.88
2022-11-09T03:49:26.699Z,97568.72
2022-11-09T03:51:53.299Z,97583.06
2022-11-09T03:54:19.965Z,97561.53
2022-11-09T03:56:46.566Z,97573.06
2022-11-09T03:59:13.129Z,97555.78
2022-11-09T04:01:39.748Z,97566.22
2022-11-09T04:04:06.572Z,97562.13
2022-11-09T04:06:36.270Z,97584.50
2022-11-09T04:09:05.937Z,97602.53
2022-11-09T04:11:35.370Z,97572.19
2022-11-09T04:14:02.534Z,97599.88
2022-11-09T04:16:29.315Z,97584.69
2022-11-09T04:18:55.794Z,97593.50
2022-11-09T04:21:24.022Z,97572.97
2022-11-09T04:23:51.075Z,97586.53
2022-11-09T04:26:17.714Z,97582.03
2022-11-09T04:28:44.215Z,97573.81
2022-11-09T04:31:10.723Z,97601.50
2022-11-09T04:33:37.269Z,97578.13
2022-11-09T04:36:05.473Z,97595.78
2022-11-09T04:38:32.460Z,97596.19
2022-11-09T04:41:06.766Z,97580.38
2022-11-09T04:43:36.656Z,97580.78
2022-11-09T04:46:05.028Z,97592.69
2022-11-09T04:48:32.963Z,97589.59
2022-11-09T04:51:10.546Z,97571.72
2022-11-09T04:53:39.473Z,97566.84
2022-11-09T04:56:08.014Z,97560.69
2022-11-09T04:58:35.174Z,97563.53
2022-11-09T05:01:12.860Z,97555.38
2022-11-09T05:03:40.272Z,97559.88
2022-11-09T05:06:29.001Z,97544.28
2022-11-09T05:08:55.936Z,97552.47
2022-11-09T05:11:23.170Z,97551.22
2022-11-09T05:13:51.455Z,97563.13
2022-11-09T05:16:18.373Z,97554.53
2022-11-09T05:18:45.044Z,97571.38
2022-11-09T05:21:11.591Z,97538.97
2022-11-09T05:23:59.351Z,97565.22
2022-11-09T05:26:34.550Z,97568.94
2022-11-09T05:29:03.511Z,97570.72
2022-11-09T05:31:31.059Z,97556.16
2022-11-09T05:33:58.154Z,97573.19
2022-11-09T05:36:25.194Z,97562.69
2022-11-09T05:38:52.013Z,97573.75
2022-11-09T05:41:18.571Z,97573.75
2022-11-09T05:43:46.033Z,97571.63
2022-11-09T05:46:16.724Z,97592.31
2022-11-09T05:48:43.889Z,97581.47
2022-11-09T05:51:14.696Z,97584.53
2022-11-09T05:53:46.172Z,97574.69
2022-11-09T05:56:14.399Z,97593.22
2022-11-09T05:58:43.991Z,97580.41
2022-11-09T06:01:19.099Z,97601.56
2022-11-09T06:03:45.665Z,97602.78
2022-11-09T06:06:14.520Z,97599.84
2022-11-09T06:08:42.216Z,97595.78
2022-11-09T06:11:18.226Z,97614.25
2022-11-09T06:13:49.532Z,97600.31
2022-11-09T06:16:16.052Z,97614.66
2022-11-09T06:18:42.612Z,97614.84
2022-11-09T06:21:12.824Z,97612.19
2022-11-09T06:23:39.525Z,97608.09
2022-11-09T06:26:13.825Z,97607.06
2022-11-09T06:28:43.827Z,97606.69
2022-11-09T06:31:13.697Z,97571.38
2022-11-09T06:33:42.461Z,97599.50
2022-11-09T06:36:12.632Z,97605.44
2022-11-09T06:38:42.613Z,97608.94
2022-11-09T06:41:12.800Z,97592.44
2022-11-09T06:43:39.339Z,97609.47
2022-11-09T06:46:06.277Z,97616.47
2022-11-09T06:48:33.293Z,97605.81
2022-11-09T06:51:04.125Z,97606.41
2022-11-09T06:53:32.821Z,97621.19
2022-11-09T06:56:04.768Z,97615.06
2022-11-09T06:58:32.125Z,97627.97
2022-11-09T07:00:59.158Z,97630.81
2022-11-09T07:03:26.057Z,97636.31
2022-11-09T07:05:53.338Z,97637.16
2022-11-09T07:08:19.908Z,97640.06
2022-11-09T07:10:46.550Z,97642.50
2022-11-09T07:13:16.472Z,97645.78
2022-11-09T07:15:45.019Z,97641.59
2022-11-09T07:18:15.357Z,97635.63
2022-11-09T07:20:41.877Z,97643.44
2022-11-09T07:23:08.431Z,97658.25
2022-11-09T07:25:36.012Z,97653.13
2022-11-09T07:28:08.499Z,97683.69
2022-11-09T07:30:36.861Z,97677.16
2022-11-09T07:33:09.600Z,97674.72
2022-11-09T07:35:36.953Z,97671.06
2022-11-09T07:38:03.500Z,97663.66
2022-11-09T07:40:30.860Z,97651.94
2022-11-09T07:43:01.818Z,97650.97
2022-11-09T07:45:31.605Z,97674.31
2022-11-09T07:47:59.975Z,97672.84
2022-11-09T07:50:27.688Z,97689.78
2022-11-09T07:52:58.996Z,97672.28
2022-11-09T07:55:26.772Z,97691.06
2022-11-09T07:57:58.239Z,97670.63
2022-11-09T08:00:25.782Z,97696.56
2022-11-09T08:02:52.644Z,97687.19
2022-11-09T08:05:19.354Z,97695.59
2022-11-09T08:07:50.185Z,97690.75
2022-11-09T08:10:19.733Z,97690.00
2022-11-09T08:12:53.250Z,97691.75
2022-11-09T08:15:19.806Z,97715.16
2022-11-09T08:17:49.974Z,97712.03
2022-11-09T08:20:18.592Z,97720.06
2022-11-09T08:22:47.812Z,97725.66
2022-11-09T08:25:14.754Z,97728.09
2022-11-09T08:27:41.426Z,97703.47
2022-11-09T08:30:12.314Z,97699.78
2022-11-09T08:32:38.861Z,97694.66
2022-11-09T08:35:06.016Z,97708.44
2022-11-09T08:37:34.825Z,97730.63
2022-11-09T08:40:01.446Z,97733.53
2022-11-09T08:42:27.969Z,97735.50
2022-11-09T08:44:54.846Z,97753.16
2022-11-09T08:47:21.381Z,97753.38
2022-11-09T08:49:50.609Z,97768.56
2022-11-09T08:52:19.121Z,97771.75
2022-11-09T08:54:45.768Z,97768.47
2022-11-09T08:57:12.483Z,97772.78
2022-11-09T08:59:39.150Z,97788.81
2022-11-09T09:02:06.117Z,97778.03
2022-11-09T09:04:32.871Z,97807.53
2022-11-09T09:07:00.506Z,97808.03
2022-11-09T09:09:27.507Z,97794.84
2022-11-09T09:11:54.539Z,97808.22
2022-11-09T09:14:25.342Z,97795.41
2022-11-09T09:17:03.774Z,97812.91
2022-11-09T09:19:35.943Z,97755.09
2022-11-09T09:22:04.303Z,97759.88
2022-11-09T09:24:46.298Z,97790.91
2022-11-09T09:27:28.294Z,97798.88
2022-11-09T09:30:30.646Z,97832.16
2022-11-09T09:33:01.466Z,97832.97
2022-11-09T09:35:29.619Z,97846.50
2022-11-09T09:37:58.464Z,97827.22
2022-11-09T09:40:32.012Z,97856.06
2022-11-09T09:42:58.641Z,97847.25
2022-11-09T09:45:31.903Z,97844.28
2022-11-09T09:47:58.580Z,97853.28
2022-11-09T09:50:37.883Z,97855.56
2022-11-09T09:53:23.651Z,97836.38
2022-11-09T09:56:00.965Z,97850.09
2022-11-09T09:58:33.129Z,97856.81
2022-11-09T10:01:11.465Z,97860.06
2022-11-09T10:03:38.295Z,97866.63
2022-11-09T10:06:28.484Z,97867.72
2022-11-09T10:09:04.486Z,97863.72
2022-11-09T10:12:13.456Z,97876.09
2022-11-09T10:14:52.058Z,97876.28
2022-11-09T10:17:21.668Z,97885.03
2022-11-09T10:20:22.446Z,97894.47
2022-11-09T10:23:08.879Z,97872.66
2022-11-09T10:28:42.608Z,97886.41
2022-11-09T10:31:23.845Z,97891.09
2022-11-09T10:34:03.126Z,97892.31
2022-11-09T10:37:10.843Z,97882.03
2022-11-09T10:39:47.239Z,97886.94
2022-11-09T10:42:14.121Z,97889.94
2022-11-09T10:44:40.913Z,97876.41
2022-11-09T10:47:12.596Z,97872.88
2022-11-09T10:49:40.402Z,97872.44
2022-11-09T10:52:31.936Z,97883.13
2022-11-09T10:55:21.842Z,97882.44
2022-11-09T10:58:23.205Z,97873.69
2022-11-09T11:01:22.981Z,97874.09
2022-11-09T11:03:54.607Z,97865.72
2022-11-09T11:06:21.031Z,97863.91
2022-11-09T11:08:57.825Z,97859.94
2022-11-09T11:11:37.183Z,97863.50
2022-11-09T11:14:29.986Z,97856.53
2022-11-09T11:16:56.526Z,97847.56
2022-11-09T11:19:26.102Z,97857.72
2022-11-09T11:22:33.807Z,97865.09
2022-11-09T11:25:03.061Z,97857.28
2022-11-09T11:27:55.948Z,97858.16
2022-11-09T11:30:28.863Z,97856.75
2022-11-09T11:32:55.963Z,97850.69
2022-11-09T11:35:40.816Z,97841.50
2022-11-09T11:38:22.671Z,97855.13
2022-11-09T11:41:08.034Z,97859.81
2022-11-09T11:43:46.432Z,97850.44
2022-11-09T11:46:44.952Z,97849.19
2022-11-09T11:49:36.116Z,97856.06
2022-11-09T11:52:18.721Z,97849.53
2022-11-09T11:54:52.831Z,97847.75
2022-11-09T11:57:31.415Z,97848.44
2022-11-09T12:00:14.020Z,97849.09
2022-11-09T12:03:05.194Z,97842.34
2022-11-09T12:05:31.703Z,97839.03
2022-11-09T12:08:16.548Z,97841.50
2022-11-09T12:10:52.214Z,97836.41
2022-11-09T12:13:38.788Z,97842.59
2022-11-09T12:16:15.849Z,97839.50
2022-11-09T12:18:51.488Z,97846.31
2022-11-09T12:21:27.138Z,97829.91
2022-11-09T12:24:27.532Z,97847.38
2022-11-09T12:27:37.096Z,97847.75
2022-11-09T12:30:13.056Z,97850.03
2022-11-09T12:33:11.916Z,97850.22
2022-11-09T12:35:43.668Z,97848.56
2022-11-09T12:38:20.646Z,97848.91
2022-11-09T12:41:02.150Z,97857.72
2022-11-09T12:43:34.491Z,97843.16
2022-11-09T12:46:03.941Z,97830.22
2022-11-09T12:48:35.337Z,97832.31
2022-11-09T12:51:05.359Z,97834.16
2022-11-09T12:53:38.626Z,97832.31
2022-11-09T12:56:14.062Z,97825.56
2022-11-09T12:58:40.726Z,97819.22
2022-11-09T13:01:11.744Z,97820.28
2022-11-09T13:03:51.745Z,97827.88
2022-11-09T13:06:24.816Z,97836.06
2022-11-09T13:09:11.148Z,97833.41
2022-11-09T13:11:46.139Z,97837.91
2022-11-09T13:14:31.096Z,97832.38
2022-11-09T13:17:25.340Z,97838.56
2022-11-09T13:19:56.707Z,97831.16
2022-11-09T13:22:23.667Z,97830.38
2022-11-09T13:25:26.670Z,97836.75
2022-11-09T13:27:53.602Z,97838.97
2022-11-09T13:30:23.327Z,97848.19
2022-11-09T13:33:10.671Z,97846.16
2022-11-09T13:35:40.333Z,97848.00
2022-11-09T13:38:28.812Z,97837.94
2022-11-09T13:41:00.468Z,97853.38
2022-11-09T13:43:39.998Z,97839.59
2022-11-09T13:46:26.438Z,97854.03
2022-11-09T13:48:57.120Z,97848.47
2022-11-09T13:51:40.696Z,97861.00
2022-11-09T13:54:36.563Z,97869.63
2022-11-09T13:57:09.438Z,97870.81
2022-11-09T13:59:47.617Z,97862.41
2022-11-09T14:02:24.025Z,97870.19
2022-11-09T14:04:50.911Z,97870.38
2022-11-09T14:07:24.429Z,97878.78
2022-11-09T14:10:22.195Z,97882.06
2022-11-09T14:13:10.250Z,97892.72
2022-11-09T14:16:35.573Z,97894.94
2022-11-09T14:19:14.109Z,97892.31
2022-11-09T14:21:53.242Z,97876.69
2022-11-09T14:24:30.848Z,97890.69
2022-11-09T14:27:10.554Z,97896.84
2022-11-09T14:29:47.011Z,97887.59
2022-11-09T14:32:35.785Z,97876.50
2022-11-09T14:35:21.242Z,97896.28
2022-11-09T14:37:53.849Z,97909.44
2022-11-09T14:40:24.941Z,97916.19
2022-11-09T14:42:59.723Z,97913.50
2022-11-09T14:45:27.534Z,97921.72
2022-11-09T14:47:57.650Z,97920.47
2022-11-09T14:50:27.895Z,97923.34
2022-11-09T14:52:55.872Z,97924.97
2022-11-09T14:55:24.369Z,97925.59
2022-11-09T14:57:54.046Z,97916.75
2022-11-09T15:00:33.205Z,97922.56
2022-11-09T15:03:20.709Z,97936.19
2022-11-09T15:05:47.445Z,97928.81
2022-11-09T15:08:21.300Z,97926.88
2022-11-09T15:10:57.541Z,97915.16
2022-11-09T15:13:37.957Z,97928.47
2022-11-09T15:16:06.307Z,97936.25
2022-11-09T15:18:36.749Z,97927.56
2022-11-09T15:21:24.851Z,97933.28
2022-11-09T15:24:06.065Z,97931.19
2022-11-09T15:26:43.297Z,97925.22
2022-11-09T15:29:34.458Z,97940.41
2022-11-09T15:32:07.089Z,97940.78
2022-11-09T15:34:40.685Z,97938.66
2022-11-09T15:37:30.410Z,97937.88
2022-11-09T15:39:58.772Z,97947.56
2022-11-09T15:42:26.638Z,97945.28
2022-11-09T15:44:55.921Z,97942.28
2022-11-09T15:47:34.925Z,97941.88
2022-11-09T15:50:14.858Z,97932.25
2022-11-09T15:52:43.466Z,97939.00
2022-11-09T15:55:20.576Z,97931.03
2022-11-09T15:57:50.292Z,97927.06
2022-11-09T16:00:21.201Z,97940.59
2022-11-09T16:02:51.633Z,97946.28
2022-11-09T16:05:20.539Z,97951.97
2022-11-09T16:07:52.374Z,97945.13
2022-11-09T16:10:23.395Z,97934.19
2022-11-09T16:12:53.345Z,97959.75
2022-11-09T16:15:20.737Z,97988.69
2022-11-09T16:17:50.217Z,97986.22
2022-11-09T16:20:21.533Z,97985.78
2022-11-09T16:22:50.726Z,97981.41
2022-11-09T16:25:20.211Z,98015.16
2022-11-09T16:27:51.186Z,98014.13
2022-11-09T16:30:20.158Z,98016.78
2022-11-09T16:32:46.707Z,98026.31
2022-11-09T16:35:29.158Z,98029.09
2022-11-09T16:37:58.053Z,98043.56
2022-11-09T16:40:25.985Z,98018.31
2022-11-09T16:42:52.595Z,98042.63
2022-11-09T16:45:29.144Z,98048.78
2022-11-09T16:48:01.345Z,98058.94
2022-11-09T16:50:27.979Z,98054.09
2022-11-09T16:52:54.476Z,98053.78
2022-11-09T16:55:21.087Z,98056.81
2022-11-09T16:57:49.966Z,98058.56
2022-11-09T17:00:20.460Z,98054.44
2022-11-09T17:02:47.011Z,98065.56
2022-11-09T17:05:13.551Z,98072.06
2022-11-09T17:07:42.767Z,98068.59
2022-11-09T17:10:10.501Z,98059.03
2022-11-09T17:12:37.464Z,98080.34
2022-11-09T17:15:04.324Z,98083.28
2022-11-09T17:17:31.007Z,98079.47
2022-11-09T17:19:57.824Z,98086.78
2022-11-09T17:22:24.339Z,98085.94
2022-11-09T17:24:50.941Z,98100.66
2022-11-09T17:27:18.206Z,98101.47
2022-11-09T17:29:44.992Z,98100.75
2022-11-09T17:32:11.779Z,98099.59
2022-11-09T17:34:38.376Z,98098.91
2022-11-09T17:37:05.746Z,98119.41
2022-11-09T17:39:32.847Z,98118.22
2022-11-09T17:41:59.487Z,98117.22
2022-11-09T17:44:26.025Z,98119.81
2022-11-09T17:46:52.697Z,98128.25
2022-11-09T17:49:22.532Z,98132.09
2022-11-09T17:51:53.545Z,98130.25
2022-11-09T17:54:22.726Z,98140.19
2022-11-09T17:56:52.434Z,98147.44
2022-11-09T17:59:22.757Z,98155.25
2022-11-09T18:01:52.736Z,98157.06
2022-11-09T18:04:20.869Z,98159.72
2022-11-09T18:06:47.422Z,98151.81
2022-11-09T18:12:01.475Z,98169.72
2022-11-09T18:14:27.975Z,98175.75
2022-11-09T18:16:54.555Z,98175.59
2022-11-09T18:19:21.405Z,98170.06
2022-11-09T18:21:47.916Z,98179.72
2022-11-09T18:24:14.698Z,98190.28
2022-11-09T18:26:41.194Z,98182.31
2022-11-09T18:29:07.695Z,98188.34
2022-11-09T18:31:34.269Z,98187.69
2022-11-09T18:34:01.024Z,98203.59
2022-11-09T18:36:27.958Z,98200.47
2022-11-09T18:38:55.762Z,98202.16
2022-11-09T18:41:23.982Z,98212.06
2022-11-09T18:43:54.096Z,98229.19
2022-11-09T18:46:22.378Z,98222.91
2022-11-09T18:48:53.202Z,98228.44
2022-11-09T18:51:23.376Z,98216.28
2022-11-09T18:53:51.757Z,98224.94
2022-11-09T18:56:24.058Z,98233.09
2022-11-09T18:58:55.771Z,98234.22
2022-11-09T19:01:24.851Z,98239.81
2022-11-09T19:03:59.754Z,98251.50
2022-11-09T19:06:26.588Z,98245.38
2022-11-09T19:09:11.850Z,98242.09
2022-11-09T19:11:38.957Z,98247.06
2022-11-09T19:14:05.900Z,98236.31
2022-11-09T19:16:32.799Z,98245.38
2022-11-09T19:18:59.365Z,98247.53
2022-11-09T19:21:39.994Z,98257.81
2022-11-09T19:24:11.040Z,98251.81
2022-11-09T19:26:38.263Z,98268.25
2022-11-09T19:29:06.931Z,98238.97
2022-11-09T19:31:36.589Z,98280.09
2022-11-09T19:34:03.409Z,98274.28
2022-11-09T19:36:31.551Z,98273.28
2022-11-09T19:39:01.392Z,98272.31
2022-11-09T19:41:29.466Z,98258.69
2022-11-09T19:44:00.562Z,98230.25
2022-11-09T19:46:33.315Z,98275.50
2022-11-09T19:49:09.118Z,98249.66
2022-11-09T19:51:36.262Z,98280.59
2022-11-09T19:54:11.141Z,98241.56
2022-11-09T19:56:37.697Z,98260.06
2022-11-09T19:59:05.558Z,98288.38
2022-11-09T20:01:32.159Z,98277.47
2022-11-09T20:04:00.639Z,98283.16
2022-11-09T20:06:28.234Z,98267.28
2022-11-09T20:08:55.780Z,98301.09
2022-11-09T20:11:45.501Z,98274.31
2022-11-09T20:14:13.132Z,98311.06
2022-11-09T20:16:40.971Z,98310.94
2022-11-09T20:19:11.732Z,98303.56
2022-11-09T20:21:40.239Z,98313.88
2022-11-09T20:24:07.835Z,98295.06
2022-11-09T20:26:34.374Z,98313.44
2022-11-09T20:29:00.950Z,98333.50
2022-11-09T20:31:27.552Z,98331.03
2022-11-09T20:33:56.306Z,98308.34
2022-11-09T20:36:22.963Z,98324.63
2022-11-09T20:38:49.523Z,98333.34
2022-11-09T20:41:16.084Z,98333.56
2022-11-09T20:43:42.804Z,98322.13
2022-11-09T20:46:15.947Z,98341.53
2022-11-09T20:48:58.866Z,98318.81
2022-11-09T20:51:25.769Z,98321.66
2022-11-09T20:53:52.687Z,98351.75
2022-11-09T20:56:23.009Z,98348.44
2022-11-09T20:58:52.087Z,98346.78
2022-11-09T21:01:21.876Z,98350.75
2022-11-09T21:03:53.571Z,98347.72
2022-11-09T21:06:24.238Z,98364.91
2022-11-09T21:08:53.607Z,98359.81
2022-11-09T21:11:28.534Z,98344.09
2022-11-09T21:13:55.811Z,98365.50
2022-11-09T21:16:25.108Z,98362.00
2022-11-09T21:18:54.622Z,98362.47
2022-11-09T21:21:24.981Z,98374.25
2022-11-09T21:24:13.023Z,98361.13
2022-11-09T21:26:58.135Z,98369.41
2022-11-09T21:29:43.292Z,98374.00
2022-11-09T21:32:11.621Z,98357.78
2022-11-09T21:34:38.593Z,98373.22
2022-11-09T21:37:05.675Z,98368.25
2022-11-09T21:39:32.455Z,98371.06
2022-11-09T21:41:59.223Z,98386.19
2022-11-09T21:44:28.792Z,98401.13
2022-11-09T21:46:58.418Z,98392.19
2022-11-09T21:49:25.194Z,98406.59
2022-11-09T21:51:54.558Z,98386.88
2022-11-09T21:54:22.867Z,98402.34
2022-11-09T21:56:50.662Z,98407.78
2022-11-09T21:59:17.787Z,98399.84
2022-11-09T22:01:44.988Z,98422.91
2022-11-09T22:04:11.633Z,98423.56
2022-11-09T22:06:40.457Z,98400.66
2022-11-09T22:09:08.789Z,98419.91
2022-11-09T22:11:54.233Z,98408.63
2022-11-09T22:14:39.356Z,98419.75
2022-11-09T22:17:09.601Z,98426.06
2022-11-09T22:19:56.676Z,98433.75
2022-11-09T22:22:27.194Z,98438.88
2022-11-09T22:24:54.483Z,98412.72
2022-11-09T22:27:21.014Z,98412.72
2022-11-09T22:48:17.313Z,98454.34
2022-11-09T22:50:43.820Z,98454.19
2022-11-09T22:53:10.380Z,98442.25
2022-11-09T22:55:39.644Z,98451.91
2022-11-09T22:58:08.596Z,98433.31
2022-11-09T23:01:31.915Z,98460.03
2022-11-09T23:03:58.476Z,98452.41
2022-11-09T23:06:25.435Z,98452.25
2022-11-09T23:08:52.003Z,98454.56
2022-11-09T23:37:03.373Z,98478.22
2022-11-09T23:39:29.893Z,98484.19
2022-11-09T23:41:56.385Z,98488.66
2022-11-09T23:44:22.885Z,98492.00
2022-11-09T23:46:49.448Z,98476.72
2022-11-09T23:49:15.936Z,98487.19
2022-11-09T23:51:42.437Z,98505.44
2022-11-09T23:54:09.004Z,98498.78
2022-11-09T23:56:35.550Z,98488.66
2022-11-09T23:59:02.047Z,98494.09
